Time;durP1;ratioP1;P1;durP2;ratioP2;P2;SDS_P1;SDS_P2;PMS_P1;PMS_P2;Temp;Humidity;BMP_temperature;BMP_pressure;BME280_temperature;BME280_humidity;BME280_pressure;Samples;Min_cycle;Max_cycle;Signal;HPM_P1;HPM_P2
2021/07/27 00:09:43;;;;;;;10.47;3.93;;;14.20;99.90;;;;;;20838303;28;20068;-79
2021/07/27 00:19:44;;;;;;;7.37;4.47;;;13.90;99.90;;;;;;20857070;28;20029;-78
2021/07/27 00:29:45;;;;;;;13.73;5.83;;;14.10;99.90;;;;;;20866514;28;20084;-80
2021/07/27 00:39:46;;;;;;;9.17;4.17;;;14.20;99.90;;;;;;20854490;22;20048;-75
2021/07/27 00:49:47;;;;;;;8.30;3.47;;;14.20;99.90;;;;;;20832545;28;20468;-75
2021/07/27 00:59:48;;;;;;;;;;;14.20;99.90;;;;;;20814417;28;20095;-76
2021/07/27 01:42:08;;;;;;;8.05;4.25;;;13.90;99.90;;;;;;20828618;28;20410;-76
2021/07/27 01:52:11;;;;;;;22.27;6.63;;;13.50;99.90;;;;;;20827154;28;20503;-76
2021/07/27 02:02:12;;;;;;;22.20;9.27;;;13.40;99.90;;;;;;20828944;28;20033;-76
2021/07/27 02:12:19;;;;;;;20.03;10.00;;;13.80;99.90;;;;;;20826430;28;20040;-75
2021/07/27 02:22:19;;;;;;;65.82;13.95;;;14.10;99.90;;;;;;20808247;28;20087;-75
2021/07/27 02:32:20;;;;;;;36.30;14.20;;;14.10;99.90;;;;;;20824967;28;20380;-77
2021/07/27 02:42:21;;;;;;;122.70;20.67;;;14.10;99.90;;;;;;20824548;28;20056;-76
2021/07/27 02:52:22;;;;;;;89.73;19.47;;;14.20;99.90;;;;;;20823908;28;20113;-76
2021/07/27 03:02:27;;;;;;;14.47;8.20;;;14.30;99.90;;;;;;20833901;28;20159;-77
2021/07/27 03:12:28;;;;;;;13.63;6.55;;;14.10;99.90;;;;;;20855570;28;20044;-74
2021/07/27 03:22:29;;;;;;;12.97;5.80;;;13.70;99.90;;;;;;20919710;28;20028;-76
2021/07/27 03:32:31;;;;;;;7.87;4.53;;;13.20;99.90;;;;;;20921148;28;20035;-76
2021/07/27 03:42:32;;;;;;;9.05;4.80;;;13.30;99.90;;;;;;20920165;28;20487;-76
2021/07/27 03:52:33;;;;;;;9.93;4.60;;;13.10;99.90;;;;;;20920906;28;20487;-77
2021/07/27 04:02:34;;;;;;;16.50;5.70;;;13.00;99.90;;;;;;20902804;28;20036;-77
2021/07/27 04:12:35;;;;;;;13.53;7.47;;;12.90;99.90;;;;;;20917665;28;20033;-76
2021/07/27 04:22:36;;;;;;;11.40;6.60;;;13.00;99.90;;;;;;20917555;28;20107;-75
2021/07/27 04:32:37;;;;;;;23.23;12.33;;;13.20;99.90;;;;;;20874721;28;20030;-76
2021/07/27 04:42:38;;;;;;;34.50;14.83;;;13.60;99.90;;;;;;20815569;28;20036;-76
2021/07/27 04:52:41;;;;;;;173.03;21.27;;;13.80;99.90;;;;;;20814756;28;20060;-75
2021/07/27 05:02:42;;;;;;;31.88;14.00;;;14.00;99.90;;;;;;20832086;28;20108;-75
2021/07/27 05:12:43;;;;;;;62.57;15.10;;;13.80;99.90;;;;;;20813195;28;20065;-75
2021/07/27 05:22:44;;;;;;;70.10;16.27;;;14.00;99.90;;;;;;20829618;28;20030;-76
2021/07/27 05:32:44;;;;;;;32.93;13.33;;;14.10;99.90;;;;;;20829623;28;20384;-76
2021/07/27 05:42:45;;;;;;;49.90;16.90;;;14.10;99.90;;;;;;20811301;28;20116;-76
2021/07/27 05:52:46;;;;;;;42.37;14.97;;;14.40;99.90;;;;;;20826775;28;20041;-76
2021/07/27 06:02:47;;;;;;;36.37;13.07;;;14.50;99.90;;;;;;20827917;28;20030;-75
2021/07/27 06:12:48;;;;;;;26.20;12.93;;;14.80;99.90;;;;;;20844920;28;20041;-75
2021/07/27 06:22:49;;;;;;;32.63;12.13;;;14.90;99.90;;;;;;20826332;28;20033;-76
2021/07/27 06:42:59;;;;;;;22.60;9.77;;;15.50;99.90;;;;;;20659221;28;20050;-78
2021/07/27 06:53:01;;;;;;;27.93;10.20;;;15.60;99.90;;;;;;20660527;28;20045;-77
2021/07/27 07:03:02;;;;;;;29.05;13.25;;;15.60;99.90;;;;;;20661408;28;20054;-77
2021/07/27 07:13:03;;;;;;;38.63;13.63;;;15.80;99.90;;;;;;20661260;28;20034;-77
2021/07/27 07:23:04;;;;;;;31.93;14.20;;;16.10;99.90;;;;;;20660705;28;20038;-77
2021/07/27 07:33:05;;;;;;;32.57;13.93;;;16.60;99.90;;;;;;20659138;28;20038;-77
2021/07/27 07:43:06;;;;;;;34.43;14.27;;;16.50;99.90;;;;;;20660144;28;20074;-78
2021/07/27 07:53:07;;;;;;;30.67;12.90;;;16.80;99.90;;;;;;20674091;28;20356;-77
2021/07/27 08:03:07;;;;;;;20.73;10.27;;;17.20;99.90;;;;;;20673711;28;20034;-77
2021/07/27 08:13:08;;;;;;;16.87;9.47;;;17.70;99.90;;;;;;20673159;28;20112;-78
2021/07/27 08:23:09;;;;;;;14.40;7.63;;;18.50;99.90;;;;;;20654485;28;20035;-78
2021/07/27 08:33:10;;;;;;;12.60;7.43;;;19.50;99.90;;;;;;20671288;28;20030;-78
2021/07/27 08:43:12;;;;;;;10.43;6.37;;;20.40;99.90;;;;;;20669356;28;20038;-79
2021/07/27 08:53:13;;;;;;;10.18;7.10;;;21.00;99.90;;;;;;20670154;28;20086;-79
2021/07/27 09:03:18;;;;;;;7.97;5.50;;;21.50;99.90;;;;;;20676409;28;20512;-79
2021/07/27 09:13:19;;;;;;;9.55;5.90;;;22.00;99.90;;;;;;20667235;28;20037;-79
2021/07/27 09:23:22;;;;;;;8.60;5.45;;;22.60;99.90;;;;;;20667763;28;20397;-79
2021/07/27 09:33:34;;;;;;;6.40;4.63;;;23.30;99.90;;;;;;20666812;28;20026;-78
2021/07/27 09:43:34;;;;;;;;;;;24.70;99.90;;;;;;20665184;28;20116;-78
2021/07/27 09:53:36;;;;;;;6.43;3.70;;;25.00;99.90;;;;;;20663933;28;19929;-79
2021/07/27 10:03:54;;;;;;;6.88;3.83;;;25.40;99.90;;;;;;20663782;28;20034;-79
2021/07/27 10:14:06;;;;;;;5.93;4.03;;;25.40;99.90;;;;;;20662807;28;20481;-78
2021/07/27 10:24:13;;;;;;;4.10;3.13;;;25.70;99.90;;;;;;20663452;28;20129;-78
2021/07/27 10:34:15;;;;;;;7.22;3.67;;;25.00;99.90;;;;;;20662607;28;20053;-79
2021/07/27 10:44:20;;;;;;;5.35;3.22;;;25.90;99.90;;;;;;20662626;28;20045;-78
2021/07/27 10:54:29;;;;;;;4.20;3.40;;;25.50;99.90;;;;;;20666711;28;20078;-79
2021/07/27 11:04:31;;;;;;;5.70;3.80;;;25.60;99.90;;;;;;20644405;28;20422;-78
2021/07/27 11:14:32;;;;;;;5.13;3.13;;;25.60;99.90;;;;;;20659664;28;20389;-78
2021/07/27 11:24:33;;;;;;;5.38;3.40;;;27.30;99.90;;;;;;20670775;28;20026;-78
2021/07/27 11:34:34;;;;;;;5.72;3.35;;;26.80;99.90;;;;;;20675656;28;20113;-78
2021/07/27 11:44:35;;;;;;;5.85;3.70;;;27.30;99.90;;;;;;20674106;28;20027;-78
2021/07/27 11:54:35;;;;;;;6.13;3.42;;;27.80;99.90;;;;;;20657137;28;20038;-78
2021/07/27 12:04:36;;;;;;;5.07;3.20;;;27.80;99.90;;;;;;20674766;28;20547;-77
2021/07/27 12:14:37;;;;;;;5.63;3.50;;;27.60;99.90;;;;;;20672954;28;20288;-77
2021/07/27 12:24:38;;;;;;;7.93;3.42;;;27.10;99.90;;;;;;20672300;28;20023;-77
2021/07/27 12:34:39;;;;;;;8.02;3.72;;;26.50;99.90;;;;;;20705974;23;20050;-76
2021/07/27 12:44:40;;;;;;;5.28;3.47;;;26.50;99.90;;;;;;20833477;28;20412;-77
2021/07/27 12:54:41;;;;;;;8.38;4.30;;;26.10;99.90;;;;;;20832680;28;20491;-76
2021/07/27 13:04:41;;;;;;;;;;;24.90;99.90;;;;;;20832459;28;20113;-76
2021/07/27 13:14:43;;;;;;;5.60;3.17;;;24.80;99.90;;;;;;20813515;28;19917;-77
2021/07/27 13:24:44;;;;;;;8.38;3.53;;;26.50;99.90;;;;;;20830284;28;20025;-76
2021/07/27 13:34:44;;;;;;;9.07;3.83;;;26.90;99.90;;;;;;20811431;28;20048;-77
2021/07/27 13:44:45;;;;;;;5.63;3.50;;;28.30;99.90;;;;;;20827740;28;20040;-77
2021/07/27 13:54:46;;;;;;;4.15;3.20;;;28.70;99.90;;;;;;20810131;28;20033;-77
2021/07/27 14:04:47;;;;;;;7.85;3.67;;;28.60;99.90;;;;;;20827399;28;20445;-76
2021/07/27 14:14:49;;;;;;;5.05;3.35;;;27.20;99.90;;;;;;20806114;28;20128;-77
2021/07/27 14:24:50;;;;;;;5.65;4.10;;;28.40;99.90;;;;;;20804560;28;20033;-77
2021/07/27 14:34:51;;;;;;;5.70;4.00;;;28.40;99.90;;;;;;20804110;28;20386;-77
2021/07/27 14:44:52;;;;;;;7.07;3.40;;;28.10;99.90;;;;;;20785851;28;20124;-77
2021/07/27 14:54:53;;;;;;;8.63;3.30;;;28.10;99.90;;;;;;20801393;28;20033;-77
2021/07/27 15:04:54;;;;;;;7.38;3.50;;;27.60;99.90;;;;;;20821453;28;20037;-77
2021/07/27 15:14:55;;;;;;;7.43;3.90;;;26.90;99.90;;;;;;20820887;28;20436;-77
2021/07/27 15:24:59;;;;;;;9.27;3.85;;;26.60;99.90;;;;;;20820323;28;20037;-76
2021/07/27 15:35:00;;;;;;;9.88;3.85;;;26.10;99.90;;;;;;20836859;28;20038;-77
2021/07/27 15:45:01;;;;;;;5.65;3.58;;;25.90;99.90;;;;;;20859120;28;20029;-76
2021/07/27 15:55:02;;;;;;;7.18;3.95;;;25.80;99.90;;;;;;20883518;28;20079;-76
2021/07/27 16:05:03;;;;;;;5.07;3.83;;;25.30;99.90;;;;;;20814145;28;20112;-77
2021/07/27 16:15:04;;;;;;;6.05;3.90;;;25.70;99.90;;;;;;20797674;28;20035;-76
2021/07/27 16:25:06;;;;;;;6.72;4.13;;;25.70;99.90;;;;;;20814589;28;20064;-75
2021/07/27 16:35:08;;;;;;;9.68;4.80;;;26.00;99.90;;;;;;20796370;28;20092;-76
2021/07/27 16:45:08;;;;;;;6.07;3.97;;;25.70;99.90;;;;;;20796033;28;20053;-77
2021/07/27 16:55:10;;;;;;;9.13;4.38;;;25.20;99.90;;;;;;20813501;28;20128;-76
2021/07/27 17:05:12;;;;;;;5.93;4.18;;;24.90;99.90;;;;;;20810107;28;20056;-76
2021/07/27 17:15:14;;;;;;;5.55;4.28;;;24.60;99.90;;;;;;20811677;28;20029;-77
2021/07/27 17:25:16;;;;;;;6.15;4.32;;;24.40;99.90;;;;;;20810131;28;20037;-77
2021/07/27 17:35:17;;;;;;;6.13;5.00;;;24.30;99.90;;;;;;20809770;28;20029;-77
2021/07/27 17:45:18;;;;;;;;;;;24.30;99.90;;;;;;20809931;28;20059;-77
2021/07/27 17:55:20;;;;;;;6.82;4.82;;;24.00;99.90;;;;;;20789295;28;19916;-77
2021/07/27 18:05:21;;;;;;;7.35;4.38;;;24.00;99.90;;;;;;20808900;28;20695;-77
2021/07/27 18:15:21;;;;;;;;;;;23.60;99.90;;;;;;20808043;28;20053;-77
2021/07/27 18:25:22;;;;;;;8.03;4.70;;;23.20;99.90;;;;;;20790524;28;19913;-77
2021/07/27 18:35:23;;;;;;;8.70;5.60;;;23.10;99.90;;;;;;20840237;22;20054;-79
2021/07/27 18:45:24;;;;;;;10.63;5.20;;;22.80;99.90;;;;;;20812420;28;20064;-78
2021/07/27 18:55:25;;;;;;;8.57;5.20;;;22.60;99.90;;;;;;20814278;28;20037;-78
2021/07/27 19:05:26;;;;;;;9.53;5.13;;;22.50;99.90;;;;;;20836419;28;20055;-78
2021/07/27 19:15:26;;;;;;;11.07;5.87;;;22.20;99.90;;;;;;20892972;28;20025;-79
2021/07/27 19:25:28;;;;;;;10.83;6.77;;;22.10;99.90;;;;;;20892641;28;20032;-78
2021/07/27 19:35:29;;;;;;;;;;;22.00;99.90;;;;;;20870051;28;20025;-78
2021/07/27 19:45:37;;;;;;;7.70;5.72;;;21.90;99.90;;;;;;20904752;28;19917;-77
2021/07/27 19:55:37;;;;;;;9.50;5.82;;;22.00;99.90;;;;;;20911240;28;20052;-79
2021/07/27 20:05:38;;;;;;;8.97;6.03;;;21.70;99.90;;;;;;20909782;28;20037;-78
2021/07/27 20:15:39;;;;;;;11.87;6.73;;;21.30;99.90;;;;;;20911172;28;20037;-78
2021/07/27 20:25:40;;;;;;;9.80;5.93;;;20.70;99.90;;;;;;20911155;28;20769;-78
2021/07/27 20:35:41;;;;;;;13.00;6.23;;;20.70;99.90;;;;;;20909331;28;20045;-79
2021/07/27 20:45:42;;;;;;;10.93;5.10;;;20.60;99.90;;;;;;20888618;28;20089;-79
2021/07/27 20:55:43;;;;;;;10.83;6.53;;;20.90;99.90;;;;;;20814871;28;20555;-79
2021/07/27 21:05:44;;;;;;;8.83;6.77;;;20.80;99.90;;;;;;20812105;28;20549;-82
2021/07/27 21:15:44;;;;;;;15.20;7.03;;;20.40;99.90;;;;;;20811572;28;20034;-81
2021/07/27 21:25:46;;;;;;;15.23;6.80;;;20.10;99.90;;;;;;20814303;28;20041;-79
2021/07/27 21:35:47;;;;;;;11.35;6.97;;;20.20;99.90;;;;;;20816808;28;20060;-81
2021/07/27 21:45:53;;;;;;;11.70;7.57;;;19.90;99.90;;;;;;20815083;28;20060;-81
2021/07/27 21:55:54;;;;;;;15.82;7.78;;;19.80;99.90;;;;;;20796009;28;20037;-80
2021/07/27 22:05:55;;;;;;;12.13;6.70;;;19.30;99.90;;;;;;20817789;28;20150;-80
2021/07/27 22:15:56;;;;;;;11.50;6.17;;;19.20;99.90;;;;;;20819240;28;20036;-81
2021/07/27 22:25:57;;;;;;;11.30;7.87;;;19.00;99.90;;;;;;20737207;28;20041;-81
2021/07/27 22:35:58;;;;;;;16.53;7.60;;;18.70;99.90;;;;;;20812365;28;20029;-80
2021/07/27 22:45:58;;;;;;;10.13;7.17;;;18.50;99.90;;;;;;20892810;28;20025;-79
2021/07/27 22:55:59;;;;;;;12.53;8.13;;;18.40;99.90;;;;;;20892168;28;20047;-80
2021/07/27 23:06:00;;;;;;;19.70;7.47;;;18.10;99.90;;;;;;20889977;28;20047;-80
2021/07/27 23:16:02;;;;;;;12.27;7.13;;;18.00;99.90;;;;;;20895195;28;20517;-80
2021/07/27 23:26:36;;;;;;;17.42;8.32;;;17.90;99.90;;;;;;20905374;28;20041;-80
2021/07/27 23:36:38;;;;;;;13.75;8.55;;;17.70;99.90;;;;;;20906215;28;20503;-80
2021/07/27 23:46:39;;;;;;;14.55;8.50;;;17.70;99.90;;;;;;20906460;28;20191;-80
2021/07/27 23:56:40;;;;;;;12.47;8.03;;;17.60;99.90;;;;;;20905509;28;20547;-80
